TAF Text Data
IDs:
Format:
Raw Decoded Include METAR

Data at: 1253 UTC 17 Dec 2018

KPGV 171139Z 1712/1812 00000KT 1/2SM FG VV002
  FM171330 VRB03KT P6SM SKC
  FM171500 28009G15KT P6SM SKC
  FM172200 28004KT P6SM SKC
  FM180500 32007KT P6SM SKC AMD LTD TO CLD VIS AND WIND